Svartnes, Vardoe Svartnes Airport (ENSS)

NameVardoe Svartnes Airport
CitySvartnes
CountryNorway
ICAOENSS
IATAVAW
Altitude13 m
CoordinatesGoogle Map
Live Air TrafficLiveATC.net
METARENSS 211250Z 21027KT CAVOK M03/M06 Q0997 RMK WIND 500FT 21029KT
2019-03-21 12:50:00 Wind: South-Southwest (210°) 13.89 m/s - Visibility: > 10000 m - Weather: CAVOK - Temperature: -3 °C - Dew point: -6 °C - Humidity: 80% - Pressure: 0997 hPa

Sorry, no flights used the airport in this database.